createdAt,value
2022-08-18T00:00:45.647Z,19.01
2022-08-18T00:01:44.454Z,18.94
2022-08-18T00:02:46.518Z,18.98
2022-08-18T00:03:56.487Z,18.87
2022-08-18T00:04:48.940Z,18.98
2022-08-18T00:05:44.983Z,18.86
2022-08-18T00:06:45.162Z,18.82
2022-08-18T00:07:47.166Z,18.80
2022-08-18T00:08:46.189Z,18.80
2022-08-18T00:09:45.691Z,18.84
2022-08-18T00:10:45.838Z,18.73
2022-08-18T00:11:46.024Z,18.64
2022-08-18T00:12:46.211Z,18.80
2022-08-18T00:13:46.357Z,18.68
2022-08-18T00:14:46.518Z,18.70
2022-08-18T00:15:49.069Z,18.76
2022-08-18T00:16:48.576Z,18.65
2022-08-18T00:17:47.062Z,18.68
2022-08-18T00:18:47.226Z,18.79
2022-08-18T00:19:48.347Z,18.65
2022-08-18T00:20:48.518Z,18.70
2022-08-18T00:21:47.757Z,18.67
2022-08-18T00:22:47.918Z,18.72
2022-08-18T00:23:48.105Z,18.73
2022-08-18T00:24:49.220Z,18.61
2022-08-18T00:25:48.398Z,18.73
2022-08-18T00:26:48.747Z,18.62
2022-08-18T00:27:49.193Z,18.61
2022-08-18T00:28:48.825Z,18.59
2022-08-18T00:29:49.016Z,18.57
2022-08-18T00:30:49.176Z,18.61
2022-08-18T00:31:49.396Z,18.67
2022-08-18T00:32:49.658Z,18.55
2022-08-18T00:33:49.764Z,18.52
2022-08-18T00:34:50.690Z,18.55
2022-08-18T00:35:51.064Z,18.50
2022-08-18T00:36:50.192Z,18.49
2022-08-18T00:37:50.594Z,18.50
2022-08-18T00:38:50.697Z,18.49
2022-08-18T00:39:50.785Z,18.46
2022-08-18T00:40:50.862Z,18.50
2022-08-18T00:41:51.691Z,18.57
2022-08-18T00:42:51.308Z,18.54
2022-08-18T00:43:51.444Z,18.59
2022-08-18T00:44:51.633Z,18.47
2022-08-18T00:45:51.869Z,18.50
2022-08-18T00:46:51.982Z,18.52
2022-08-18T00:47:52.140Z,18.47
2022-08-18T00:48:52.371Z,18.46
2022-08-18T00:49:52.553Z,18.36
2022-08-18T00:50:53.208Z,18.37
2022-08-18T00:51:53.688Z,18.36
2022-08-18T00:52:53.099Z,18.40
2022-08-18T00:53:53.278Z,18.31
2022-08-18T00:54:53.710Z,18.33
2022-08-18T00:55:54.629Z,18.36
2022-08-18T00:56:54.202Z,18.37
2022-08-18T00:57:54.693Z,18.31
2022-08-18T00:58:55.189Z,18.33
2022-08-18T00:59:55.194Z,18.33
2022-08-18T01:00:54.732Z,18.40
2022-08-18T01:01:54.693Z,18.33
2022-08-18T01:02:54.902Z,18.40
2022-08-18T01:03:55.691Z,18.36
2022-08-18T01:04:55.269Z,18.37
2022-08-18T01:05:55.479Z,18.39
2022-08-18T01:06:56.194Z,18.42
2022-08-18T01:07:55.864Z,18.31
2022-08-18T01:08:56.045Z,18.37
2022-08-18T01:09:57.194Z,18.29
2022-08-18T01:10:56.367Z,18.33
2022-08-18T01:11:56.568Z,18.21
2022-08-18T01:12:56.747Z,18.28
2022-08-18T01:13:56.956Z,18.31
2022-08-18T01:14:57.698Z,18.37
2022-08-18T01:15:57.362Z,18.29
2022-08-18T01:16:58.036Z,18.31
2022-08-18T01:17:57.733Z,18.31
2022-08-18T01:18:57.886Z,18.28
2022-08-18T01:19:58.029Z,18.40
2022-08-18T01:20:58.178Z,18.33
2022-08-18T01:21:58.357Z,18.25
2022-08-18T01:22:59.520Z,18.22
2022-08-18T01:23:58.702Z,18.17
2022-08-18T01:24:59.697Z,18.19
2022-08-18T01:25:59.071Z,18.22
2022-08-18T01:26:59.243Z,18.06
2022-08-18T01:27:59.787Z,18.06
2022-08-18T01:28:59.578Z,18.04
2022-08-18T01:29:59.718Z,17.99
2022-08-18T01:30:59.845Z,17.94
2022-08-18T01:31:59.993Z,17.92
2022-08-18T01:33:00.260Z,18.03
2022-08-18T01:34:00.296Z,17.95
2022-08-18T01:35:00.451Z,17.92
2022-08-18T01:36:00.584Z,18.02
2022-08-18T01:37:00.706Z,17.89
2022-08-18T01:38:00.842Z,17.92
2022-08-18T01:39:01.215Z,17.92
2022-08-18T01:41:27.238Z,17.97
2022-08-18T01:41:29.003Z,17.92
2022-08-18T01:42:03.240Z,17.89
2022-08-18T01:43:01.903Z,17.87
2022-08-18T01:44:02.062Z,17.91
2022-08-18T01:45:02.169Z,17.76
2022-08-18T01:46:03.332Z,17.87
2022-08-18T01:47:02.447Z,17.88
2022-08-18T01:48:02.968Z,17.84
2022-08-18T01:49:02.825Z,17.89
2022-08-18T01:50:02.985Z,17.82
2022-08-18T01:51:03.128Z,17.88
2022-08-18T01:52:03.301Z,17.87
2022-08-18T01:53:03.441Z,17.84
2022-08-18T01:54:03.574Z,17.87
2022-08-18T01:55:03.725Z,17.89
2022-08-18T01:56:03.872Z,17.79
2022-08-18T01:57:04.713Z,17.92
2022-08-18T01:58:04.215Z,17.92
2022-08-18T01:59:05.210Z,17.89
2022-08-18T02:00:04.593Z,17.87
2022-08-18T02:01:04.821Z,17.84
2022-08-18T02:02:05.065Z,17.85
2022-08-18T02:03:05.196Z,17.88
2022-08-18T02:04:30.899Z,17.89
2022-08-18T02:05:07.573Z,17.89
2022-08-18T02:06:06.714Z,17.84
2022-08-18T02:07:05.976Z,17.88
2022-08-18T02:08:06.721Z,17.88
2022-08-18T02:09:06.334Z,17.81
2022-08-18T02:10:06.516Z,17.95
2022-08-18T02:11:08.719Z,17.97
2022-08-18T02:12:06.957Z,17.87
2022-08-18T02:13:07.716Z,17.88
2022-08-18T02:14:07.334Z,17.84
2022-08-18T02:15:07.490Z,17.94
2022-08-18T02:16:08.239Z,17.94
2022-08-18T02:17:07.890Z,17.95
2022-08-18T02:18:08.053Z,18.07
2022-08-18T02:19:08.225Z,18.04
2022-08-18T02:20:09.219Z,17.97
2022-08-18T02:21:10.455Z,17.91
2022-08-18T02:22:09.730Z,17.92
2022-08-18T02:23:09.719Z,17.92
2022-08-18T02:24:09.215Z,17.94
2022-08-18T02:25:09.347Z,17.92
2022-08-18T02:26:10.219Z,17.92
2022-08-18T02:27:09.703Z,17.95
2022-08-18T02:28:10.722Z,18.04
2022-08-18T02:29:10.082Z,18.02
2022-08-18T02:30:10.187Z,17.95
2022-08-18T02:31:12.228Z,17.92
2022-08-18T02:32:11.221Z,17.88
2022-08-18T02:33:11.220Z,17.79
2022-08-18T02:34:10.867Z,17.79
2022-08-18T02:35:12.127Z,17.76
2022-08-18T02:36:11.149Z,17.84
2022-08-18T02:37:15.082Z,17.84
2022-08-18T02:38:13.227Z,17.76
2022-08-18T02:39:11.706Z,17.78
2022-08-18T02:40:11.856Z,17.73
2022-08-18T02:41:11.963Z,17.66
2022-08-18T02:42:12.725Z,17.76
2022-08-18T02:43:12.728Z,17.81
2022-08-18T02:44:12.346Z,17.74
2022-08-18T02:45:12.477Z,17.76
2022-08-18T02:46:12.617Z,17.78
2022-08-18T02:47:12.748Z,17.67
2022-08-18T02:48:12.889Z,17.70
2022-08-18T02:49:13.022Z,17.63
2022-08-18T02:50:13.167Z,17.69
2022-08-18T02:51:13.748Z,17.63
2022-08-18T02:52:13.482Z,17.66
2022-08-18T02:53:13.723Z,17.64
2022-08-18T02:54:14.728Z,17.59
2022-08-18T02:55:14.727Z,17.63
2022-08-18T02:56:14.355Z,17.55
2022-08-18T02:57:14.479Z,17.57
2022-08-18T02:58:14.604Z,17.54
2022-08-18T02:59:14.752Z,17.51
2022-08-18T03:00:15.741Z,17.54
2022-08-18T03:01:15.296Z,17.53
2022-08-18T03:02:15.180Z,17.59
2022-08-18T03:03:15.336Z,17.48
2022-08-18T03:04:15.531Z,17.51
2022-08-18T03:05:15.740Z,17.55
2022-08-18T03:06:15.740Z,17.53
2022-08-18T03:07:15.879Z,17.51
2022-08-18T03:08:16.026Z,17.46
2022-08-18T03:09:16.169Z,17.40
2022-08-18T03:10:32.760Z,17.43
2022-08-18T03:11:17.483Z,17.46
2022-08-18T03:12:16.648Z,17.43
2022-08-18T03:13:17.745Z,17.43
2022-08-18T03:14:17.006Z,17.46
2022-08-18T03:15:17.743Z,17.44
2022-08-18T03:16:18.359Z,17.40
2022-08-18T03:17:17.607Z,17.33
2022-08-18T03:18:17.770Z,17.46
2022-08-18T03:19:17.894Z,17.48
2022-08-18T03:20:18.735Z,17.47
2022-08-18T03:21:19.740Z,17.51
2022-08-18T03:22:27.208Z,17.47
2022-08-18T03:23:19.465Z,17.41
2022-08-18T03:24:22.992Z,17.35
2022-08-18T03:25:19.795Z,17.40
2022-08-18T03:26:18.928Z,17.30
2022-08-18T03:27:19.744Z,17.36
2022-08-18T03:28:19.752Z,17.30
2022-08-18T03:29:19.382Z,17.43
2022-08-18T03:30:19.535Z,17.41
2022-08-18T03:31:19.752Z,17.29
2022-08-18T03:32:20.254Z,17.38
2022-08-18T03:33:20.028Z,17.32
2022-08-18T03:34:20.185Z,17.28
2022-08-18T03:35:20.346Z,17.25
2022-08-18T03:36:20.487Z,17.25
2022-08-18T03:37:20.647Z,17.30
2022-08-18T03:38:20.785Z,17.25
2022-08-18T03:39:20.927Z,17.28
2022-08-18T03:40:21.742Z,17.13
2022-08-18T03:41:49.529Z,17.28
2022-08-18T03:42:22.499Z,17.14
2022-08-18T03:43:49.986Z,17.15
2022-08-18T03:44:22.894Z,17.22
2022-08-18T03:45:22.743Z,17.25
2022-08-18T03:46:22.223Z,17.17
2022-08-18T03:47:23.244Z,17.29
2022-08-18T03:48:23.246Z,17.17
2022-08-18T03:49:22.754Z,17.17
2022-08-18T03:50:23.259Z,17.13
2022-08-18T03:51:23.125Z,17.07
2022-08-18T03:52:23.267Z,17.14
2022-08-18T03:53:23.457Z,17.15
2022-08-18T03:54:23.629Z,17.06
2022-08-18T03:55:23.784Z,17.14
2022-08-18T03:56:23.932Z,17.14
2022-08-18T03:57:24.078Z,17.17
2022-08-18T03:58:24.212Z,17.08
2022-08-18T03:59:24.371Z,17.20
2022-08-18T04:00:24.524Z,17.10
2022-08-18T04:01:26.545Z,17.11
2022-08-18T04:02:25.753Z,17.03
2022-08-18T04:03:24.999Z,17.14
2022-08-18T04:04:25.163Z,17.13
2022-08-18T04:05:25.335Z,17.15
2022-08-18T04:06:29.944Z,17.23
2022-08-18T04:07:25.633Z,17.10
2022-08-18T04:08:25.788Z,17.13
2022-08-18T04:09:26.033Z,17.17
2022-08-18T04:10:26.752Z,17.20
2022-08-18T04:11:26.369Z,17.14
2022-08-18T04:12:26.543Z,17.20
2022-08-18T04:13:26.693Z,17.13
2022-08-18T04:14:26.837Z,17.15
2022-08-18T04:15:26.982Z,17.30
2022-08-18T04:16:27.773Z,17.15
2022-08-18T04:17:27.338Z,17.15
2022-08-18T04:18:27.500Z,17.18
2022-08-18T04:19:28.488Z,17.17
2022-08-18T04:20:27.897Z,17.15
2022-08-18T04:21:28.039Z,17.18
2022-08-18T04:22:28.210Z,17.22
2022-08-18T04:23:28.773Z,17.22
2022-08-18T04:24:31.075Z,17.30
2022-08-18T04:25:32.693Z,17.20
2022-08-18T04:26:29.772Z,17.23
2022-08-18T04:27:28.904Z,17.23
2022-08-18T04:28:29.070Z,17.28
2022-08-18T04:29:29.254Z,17.20
2022-08-18T04:30:29.458Z,17.13
2022-08-18T04:31:29.620Z,17.30
2022-08-18T04:32:30.334Z,17.14
2022-08-18T04:33:30.760Z,17.11
2022-08-18T04:34:30.760Z,17.18
2022-08-18T04:35:30.775Z,17.23
2022-08-18T04:36:30.399Z,17.26
2022-08-18T04:37:30.550Z,17.08
2022-08-18T04:38:31.257Z,17.23
2022-08-18T04:39:30.939Z,17.15
2022-08-18T04:40:31.273Z,17.29
2022-08-18T04:41:31.156Z,17.18
2022-08-18T04:42:31.293Z,17.23
2022-08-18T04:43:31.434Z,17.13
2022-08-18T04:44:31.579Z,17.17
2022-08-18T04:45:31.728Z,17.13
2022-08-18T04:46:31.859Z,17.11
2022-08-18T04:47:32.002Z,17.14
2022-08-18T04:48:32.763Z,17.07
2022-08-18T04:49:33.266Z,16.99
2022-08-18T04:50:32.537Z,17.06
2022-08-18T04:52:34.112Z,17.18
2022-08-18T04:52:40.524Z,17.08
2022-08-18T04:53:34.131Z,17.20
2022-08-18T04:54:33.240Z,17.22
2022-08-18T04:55:33.395Z,17.29
2022-08-18T04:56:34.266Z,17.14
2022-08-18T04:57:34.746Z,17.22
2022-08-18T04:58:33.804Z,17.29
2022-08-18T04:59:34.771Z,17.38
2022-08-18T05:00:34.145Z,17.36
2022-08-18T05:01:34.432Z,17.33
2022-08-18T05:02:34.532Z,17.40
2022-08-18T05:03:34.678Z,17.40
2022-08-18T05:04:34.876Z,17.30
2022-08-18T05:05:34.999Z,17.44
2022-08-18T05:06:35.772Z,17.38
2022-08-18T05:07:35.317Z,17.44
2022-08-18T05:08:35.481Z,17.46
2022-08-18T05:09:41.220Z,17.63
2022-08-18T05:10:36.746Z,17.57
2022-08-18T05:11:36.772Z,17.62
2022-08-18T05:12:36.771Z,17.73
2022-08-18T05:13:36.281Z,17.73
2022-08-18T05:14:36.483Z,17.79
2022-08-18T05:15:52.922Z,17.78
2022-08-18T05:16:47.933Z,17.81
2022-08-18T05:17:38.774Z,17.84
2022-08-18T05:18:37.198Z,17.87
2022-08-18T05:19:42.330Z,17.88
2022-08-18T05:20:38.552Z,17.81
2022-08-18T05:21:37.767Z,17.91
2022-08-18T05:22:37.947Z,17.89
2022-08-18T05:23:38.093Z,17.78
2022-08-18T05:24:38.262Z,17.91
2022-08-18T05:25:38.794Z,18.02
2022-08-18T05:26:39.277Z,18.00
2022-08-18T05:27:39.796Z,17.99
2022-08-18T05:28:38.940Z,18.00
2022-08-18T05:29:41.974Z,17.92
2022-08-18T05:30:40.294Z,18.03
2022-08-18T05:31:39.790Z,17.89
2022-08-18T05:32:48.687Z,17.99
2022-08-18T05:33:41.276Z,18.06
2022-08-18T05:34:39.881Z,18.10
2022-08-18T05:35:40.056Z,18.15
2022-08-18T05:36:40.198Z,18.17
2022-08-18T05:37:40.344Z,18.13
2022-08-18T05:38:40.598Z,18.15
2022-08-18T05:39:40.651Z,18.22
2022-08-18T05:40:41.293Z,18.27
2022-08-18T05:41:41.296Z,18.25
2022-08-18T05:42:41.191Z,18.39
2022-08-18T05:43:51.580Z,18.46
2022-08-18T05:44:42.534Z,18.49
2022-08-18T05:45:42.311Z,18.57
2022-08-18T05:46:42.295Z,18.50
2022-08-18T05:47:41.945Z,18.62
2022-08-18T05:48:43.834Z,18.65
2022-08-18T05:49:43.808Z,18.65
2022-08-18T05:50:42.801Z,18.70
2022-08-18T05:51:42.574Z,18.72
2022-08-18T05:52:43.282Z,18.76
2022-08-18T05:53:42.923Z,18.64
2022-08-18T05:54:43.786Z,18.73
2022-08-18T05:55:47.621Z,18.77
2022-08-18T05:56:44.801Z,18.70
2022-08-18T05:57:43.655Z,18.68
2022-08-18T05:58:43.808Z,18.82
2022-08-18T05:59:44.792Z,18.72
2022-08-18T06:00:44.185Z,18.80
2022-08-18T06:01:44.801Z,18.82
2022-08-18T06:02:45.300Z,18.86
2022-08-18T06:03:45.300Z,18.72
2022-08-18T06:04:45.793Z,18.59
2022-08-18T06:05:45.028Z,18.68
2022-08-18T06:06:47.646Z,18.74
2022-08-18T06:07:46.401Z,18.73
2022-08-18T06:08:46.293Z,18.70
2022-08-18T06:09:45.687Z,18.83
2022-08-18T06:10:45.838Z,18.83
2022-08-18T06:11:45.966Z,18.73
2022-08-18T06:12:47.209Z,18.74
2022-08-18T06:13:47.262Z,18.70
2022-08-18T06:14:46.455Z,18.67
2022-08-18T06:15:47.292Z,18.67
2022-08-18T06:16:46.797Z,18.70
2022-08-18T06:17:47.527Z,18.67
2022-08-18T06:18:47.071Z,18.79
2022-08-18T06:19:47.306Z,18.76
2022-08-18T06:20:47.446Z,18.62
2022-08-18T06:21:47.575Z,18.55
2022-08-18T06:22:52.379Z,18.73
2022-08-18T06:23:48.908Z,18.61
2022-08-18T06:24:48.159Z,18.62
2022-08-18T06:25:48.312Z,18.49
2022-08-18T06:26:48.458Z,18.58
2022-08-18T06:27:49.302Z,18.65
2022-08-18T06:28:48.788Z,18.70
2022-08-18T06:29:48.938Z,18.79
2022-08-18T06:30:49.114Z,18.62
2022-08-18T06:31:49.263Z,18.67
2022-08-18T06:32:49.395Z,18.65
2022-08-18T06:33:50.302Z,18.70
2022-08-18T06:34:50.295Z,18.70
2022-08-18T06:35:49.824Z,18.80
2022-08-18T06:36:49.976Z,18.72
2022-08-18T06:37:50.207Z,18.82
2022-08-18T06:38:50.238Z,18.86
2022-08-18T06:39:50.416Z,18.86
2022-08-18T06:40:50.867Z,18.86
2022-08-18T06:41:50.633Z,18.76
2022-08-18T06:42:51.889Z,18.77
2022-08-18T06:43:51.313Z,18.79
2022-08-18T06:44:51.186Z,18.82
2022-08-18T06:45:51.347Z,18.86
2022-08-18T06:46:53.792Z,18.90
2022-08-18T06:47:51.928Z,18.87
2022-08-18T06:48:51.800Z,18.97
2022-08-18T06:49:51.961Z,18.99
2022-08-18T06:50:52.110Z,19.02
2022-08-18T06:51:52.283Z,19.13
2022-08-18T06:52:52.423Z,19.06
2022-08-18T06:53:52.549Z,19.14
2022-08-18T06:54:52.815Z,18.98
2022-08-18T06:55:52.837Z,19.13
2022-08-18T06:56:52.994Z,19.15
2022-08-18T06:57:53.911Z,19.06
2022-08-18T06:58:53.440Z,19.05
2022-08-18T06:59:54.838Z,19.15
2022-08-18T07:00:55.964Z,19.06
2022-08-18T07:01:53.910Z,18.90
2022-08-18T07:02:54.806Z,18.94
2022-08-18T07:03:54.296Z,18.94
2022-08-18T07:04:55.329Z,18.95
2022-08-18T07:05:54.819Z,19.01
2022-08-18T07:06:54.712Z,18.98
2022-08-18T07:07:55.362Z,19.01
2022-08-18T07:08:55.037Z,18.99
2022-08-18T07:09:55.174Z,19.06
2022-08-18T07:10:55.842Z,19.10
2022-08-18T07:11:55.492Z,18.98
2022-08-18T07:12:55.628Z,19.08
2022-08-18T07:14:15.074Z,19.13
2022-08-18T07:14:58.825Z,19.06
2022-08-18T07:15:56.142Z,19.17
2022-08-18T07:16:59.174Z,19.08
2022-08-18T07:17:57.808Z,19.05
2022-08-18T07:18:56.595Z,19.08
2022-08-18T07:19:56.764Z,19.15
2022-08-18T07:20:56.909Z,19.10
2022-08-18T07:21:57.060Z,19.24
2022-08-18T07:22:57.197Z,19.14
2022-08-18T07:24:21.120Z,19.14
2022-08-18T07:25:04.971Z,19.05
2022-08-18T07:26:00.813Z,19.06
2022-08-18T07:26:58.817Z,19.08
2022-08-18T07:27:58.356Z,18.98
2022-08-18T07:28:58.402Z,19.05
2022-08-18T07:29:58.554Z,18.98
2022-08-18T07:31:15.908Z,18.91
2022-08-18T07:32:00.923Z,18.95
2022-08-18T07:32:59.147Z,18.90
2022-08-18T07:33:59.833Z,18.84
2022-08-18T07:34:59.521Z,18.86
2022-08-18T07:35:59.684Z,18.77
2022-08-18T07:36:59.880Z,18.82
2022-08-18T07:38:00.540Z,18.77
2022-08-18T07:39:00.268Z,18.79
2022-08-18T07:40:00.537Z,18.82
2022-08-18T07:41:00.584Z,18.80
2022-08-18T07:42:00.738Z,18.79
2022-08-18T07:43:02.487Z,18.80
2022-08-18T07:44:02.108Z,18.79
2022-08-18T07:45:01.270Z,18.87
2022-08-18T07:46:01.437Z,19.01
2022-08-18T07:47:01.599Z,18.99
2022-08-18T07:48:15.904Z,19.02
2022-08-18T07:49:05.358Z,19.08
2022-08-18T07:50:31.343Z,19.14
2022-08-18T07:51:08.714Z,19.21
2022-08-18T07:52:04.013Z,19.28
2022-08-18T07:53:03.325Z,19.31
2022-08-18T07:54:02.723Z,19.31
2022-08-18T07:55:03.826Z,19.39
2022-08-18T07:56:03.101Z,19.40
2022-08-18T07:57:03.303Z,19.46
2022-08-18T07:58:04.326Z,19.54
2022-08-18T07:59:04.328Z,19.63
2022-08-18T08:00:03.867Z,19.73
2022-08-18T08:01:04.829Z,19.57
2022-08-18T08:02:04.305Z,19.61
2022-08-18T08:03:05.330Z,19.61
2022-08-18T08:04:04.846Z,19.66
2022-08-18T08:05:04.767Z,19.70
2022-08-18T08:06:05.834Z,19.61
2022-08-18T08:07:23.899Z,19.69
2022-08-18T08:08:07.363Z,19.69
2022-08-18T08:09:05.515Z,19.69
2022-08-18T08:10:05.690Z,19.87
2022-08-18T08:11:06.828Z,19.78
2022-08-18T08:12:06.098Z,19.94
2022-08-18T08:13:09.551Z,20.00
2022-08-18T08:14:07.532Z,20.00
2022-08-18T08:15:07.330Z,20.02
2022-08-18T08:16:06.838Z,19.93
2022-08-18T08:17:06.967Z,19.90
2022-08-18T08:18:07.104Z,19.93
2022-08-18T08:19:11.242Z,19.91
2022-08-18T08:20:08.851Z,19.97
2022-08-18T08:21:08.334Z,19.94
2022-08-18T08:22:07.705Z,19.90
2022-08-18T08:23:07.855Z,19.87
2022-08-18T08:24:08.832Z,19.95
2022-08-18T08:25:22.368Z,19.80
2022-08-18T08:26:10.397Z,19.98
2022-08-18T08:27:08.601Z,19.95
2022-08-18T08:28:09.336Z,19.83
2022-08-18T08:29:08.950Z,19.80
2022-08-18T08:30:09.128Z,19.87
2022-08-18T08:31:33.159Z,19.84
2022-08-18T08:32:11.522Z,19.84
2022-08-18T08:33:09.713Z,19.87
2022-08-18T08:34:09.835Z,19.91
2022-08-18T08:35:15.595Z,19.84
2022-08-18T08:36:12.205Z,19.88
2022-08-18T08:37:10.420Z,19.98
2022-08-18T08:38:39.466Z,19.93
2022-08-18T08:39:12.718Z,20.00
2022-08-18T08:40:10.965Z,19.93
2022-08-18T08:41:11.115Z,19.79
2022-08-18T08:42:30.919Z,19.83
2022-08-18T08:43:12.482Z,19.79
2022-08-18T08:44:12.341Z,19.78
2022-08-18T08:45:11.846Z,19.84
2022-08-18T08:46:12.839Z,19.83
2022-08-18T08:47:12.192Z,19.80
2022-08-18T08:48:14.499Z,19.88
2022-08-18T08:49:13.341Z,19.86
2022-08-18T08:50:12.707Z,19.94
2022-08-18T08:51:12.822Z,19.94
2022-08-18T08:52:13.862Z,19.91
2022-08-18T08:53:13.213Z,19.93
2022-08-18T08:54:13.369Z,20.02
2022-08-18T08:55:15.348Z,19.94
2022-08-18T08:56:14.354Z,20.06
2022-08-18T08:57:13.839Z,20.08
2022-08-18T08:58:13.984Z,19.98
2022-08-18T08:59:14.136Z,19.97
2022-08-18T09:00:14.299Z,20.09
2022-08-18T09:01:15.380Z,20.08
2022-08-18T09:02:37.666Z,20.06
2022-08-18T09:03:17.370Z,20.13
2022-08-18T09:04:15.046Z,20.13
2022-08-18T09:05:15.249Z,20.28
2022-08-18T09:06:16.392Z,20.33
2022-08-18T09:07:15.626Z,20.34
2022-08-18T09:08:15.772Z,20.42
2022-08-18T09:09:15.925Z,20.38
2022-08-18T09:10:16.089Z,20.41
2022-08-18T09:11:16.238Z,20.51
2022-08-18T09:12:16.363Z,20.56
2022-08-18T09:13:16.500Z,20.56
2022-08-18T09:14:16.856Z,20.62
2022-08-18T09:15:17.855Z,20.62
2022-08-18T09:16:17.359Z,20.58
2022-08-18T09:17:17.853Z,20.53
2022-08-18T09:18:17.347Z,20.62
2022-08-18T09:19:17.506Z,20.46
2022-08-18T09:20:17.642Z,20.51
2022-08-18T09:21:17.791Z,20.58
2022-08-18T09:22:18.860Z,20.38
2022-08-18T09:23:18.096Z,20.43
2022-08-18T09:24:18.258Z,20.39
2022-08-18T09:25:18.419Z,20.50
2022-08-18T09:26:19.361Z,20.47
2022-08-18T09:27:19.357Z,20.49
2022-08-18T09:28:20.752Z,20.53
2022-08-18T09:29:19.200Z,20.47
2022-08-18T09:30:19.340Z,20.51
2022-08-18T09:31:19.987Z,20.50
2022-08-18T09:32:20.383Z,20.50
2022-08-18T09:33:19.932Z,20.49
2022-08-18T09:34:20.385Z,20.42
2022-08-18T09:35:23.111Z,20.30
2022-08-18T09:36:21.354Z,20.34
2022-08-18T09:37:21.446Z,20.41
2022-08-18T09:38:21.364Z,20.42
2022-08-18T09:40:38.753Z,20.51
2022-08-18T09:41:23.493Z,20.43
2022-08-18T09:42:21.550Z,20.50
2022-08-18T09:43:22.773Z,20.47
2022-08-18T09:44:26.810Z,20.56
2022-08-18T09:45:22.105Z,20.54
2022-08-18T09:46:22.240Z,20.69
2022-08-18T09:47:22.383Z,20.58
2022-08-18T09:48:25.352Z,20.62
2022-08-18T09:49:23.791Z,20.65
2022-08-18T09:50:27.241Z,20.71
2022-08-18T09:51:24.165Z,20.76
2022-08-18T09:52:24.297Z,20.66
2022-08-18T09:53:23.507Z,20.71
2022-08-18T09:54:25.180Z,20.74
2022-08-18T09:55:23.787Z,20.61
2022-08-18T09:56:28.565Z,20.62
2022-08-18T09:57:24.118Z,20.77
2022-08-18T09:58:25.747Z,20.79
2022-08-18T09:59:24.457Z,20.72
2022-08-18T10:00:28.090Z,20.76
2022-08-18T10:01:24.870Z,20.87
2022-08-18T10:02:28.342Z,20.89
2022-08-18T10:03:30.981Z,20.81
2022-08-18T10:04:29.369Z,20.81
2022-08-18T10:05:25.592Z,20.74
2022-08-18T10:06:27.513Z,20.81
2022-08-18T10:07:25.877Z,20.79
2022-08-18T10:08:26.006Z,20.96
2022-08-18T10:09:36.046Z,20.96
2022-08-18T10:11:00.373Z,20.95
2022-08-18T10:11:27.495Z,20.91
2022-08-18T10:12:27.515Z,20.96
2022-08-18T10:13:27.375Z,20.89
2022-08-18T10:14:27.054Z,21.02
2022-08-18T10:15:33.399Z,21.04
2022-08-18T10:16:28.870Z,21.09
2022-08-18T10:17:28.377Z,21.01
2022-08-18T10:18:28.380Z,21.05
2022-08-18T10:19:34.025Z,21.13
2022-08-18T10:20:29.265Z,21.02
2022-08-18T10:23:29.723Z,21.09
2022-08-18T10:24:36.361Z,21.14
2022-08-18T10:25:31.000Z,21.09
2022-08-18T10:26:29.881Z,21.04
2022-08-18T10:27:29.264Z,21.02
2022-08-18T10:28:29.429Z,21.13
2022-08-18T10:29:29.571Z,21.16
2022-08-18T10:30:34.246Z,21.11
2022-08-18T10:31:30.900Z,21.08
2022-08-18T10:32:30.388Z,21.17
2022-08-18T10:33:30.159Z,21.11
2022-08-18T10:34:31.378Z,21.17
2022-08-18T10:35:32.731Z,21.26
2022-08-18T10:36:30.820Z,21.26
2022-08-18T10:37:31.980Z,21.32
2022-08-18T10:38:31.109Z,21.20
2022-08-18T10:39:31.324Z,20.99
2022-08-18T10:40:32.499Z,20.95
2022-08-18T10:41:31.723Z,20.98
2022-08-18T10:42:32.382Z,21.05
2022-08-18T10:43:55.111Z,21.08
2022-08-18T10:44:34.246Z,21.17
2022-08-18T10:45:32.367Z,21.24
2022-08-18T10:46:33.414Z,21.23
2022-08-18T10:47:34.382Z,21.19
2022-08-18T10:48:32.963Z,21.27
2022-08-18T10:49:33.113Z,21.13
2022-08-18T10:50:33.885Z,21.11
2022-08-18T10:51:58.064Z,21.21
2022-08-18T10:52:35.715Z,21.14
2022-08-18T10:53:40.346Z,21.09
2022-08-18T10:54:50.796Z,21.06
2022-08-18T10:56:35.171Z,21.01
2022-08-18T10:57:34.430Z,20.98
2022-08-18T10:58:34.447Z,21.09
2022-08-18T10:59:41.460Z,21.19
2022-08-18T11:00:36.391Z,21.24
2022-08-18T11:02:37.160Z,21.39
2022-08-18T11:03:56.173Z,21.38
2022-08-18T11:04:38.759Z,21.44
2022-08-18T11:05:36.408Z,21.51
2022-08-18T11:06:35.777Z,21.67
2022-08-18T11:07:35.985Z,21.78
2022-08-18T11:08:36.997Z,21.59
2022-08-18T11:09:41.550Z,21.66
2022-08-18T11:10:57.893Z,21.74
2022-08-18T11:11:41.104Z,21.76
2022-08-18T11:12:37.923Z,21.94
2022-08-18T11:13:37.076Z,21.82
2022-08-18T11:14:37.174Z,21.79
2022-08-18T11:15:38.728Z,21.94
2022-08-18T11:16:37.570Z,21.95
2022-08-18T11:17:40.643Z,21.90
2022-08-18T11:18:39.003Z,22.07
2022-08-18T11:19:38.244Z,22.04
2022-08-18T11:20:38.893Z,22.07
2022-08-18T11:21:42.363Z,22.09
2022-08-18T11:22:38.666Z,22.04
2022-08-18T11:23:38.808Z,22.16
2022-08-18T11:24:39.893Z,22.12
2022-08-18T11:25:39.896Z,22.14
2022-08-18T11:26:39.542Z,22.25
2022-08-18T11:27:40.382Z,22.35
2022-08-18T11:28:45.035Z,22.32
2022-08-18T11:29:42.395Z,22.27
2022-08-18T11:30:40.257Z,22.32
2022-08-18T11:31:40.245Z,22.27
2022-08-18T11:32:51.776Z,22.19
2022-08-18T11:33:41.658Z,22.25
2022-08-18T11:34:41.187Z,22.14
2022-08-18T11:35:41.442Z,22.22
2022-08-18T11:36:41.217Z,22.13
2022-08-18T11:37:51.508Z,22.16
2022-08-18T11:38:43.414Z,22.16
2022-08-18T11:39:42.470Z,22.23
2022-08-18T11:41:48.482Z,22.12
2022-08-18T11:42:44.375Z,22.14
2022-08-18T11:43:43.056Z,22.12
2022-08-18T11:44:43.750Z,22.07
2022-08-18T11:45:42.908Z,22.04
2022-08-18T11:46:43.076Z,22.07
2022-08-18T11:47:44.191Z,22.04
2022-08-18T11:48:51.700Z,21.99
2022-08-18T11:49:46.421Z,22.02
2022-08-18T11:50:44.406Z,21.91
2022-08-18T11:51:44.939Z,21.79
2022-08-18T11:52:44.183Z,21.81
2022-08-18T11:53:44.909Z,21.69
2022-08-18T11:54:50.341Z,21.74
2022-08-18T11:55:53.109Z,21.75
2022-08-18T11:56:45.829Z,21.67
2022-08-18T11:57:46.304Z,21.56
2022-08-18T11:58:45.217Z,21.71
2022-08-18T11:59:55.114Z,21.60
2022-08-18T12:00:46.604Z,21.64
2022-08-18T12:01:45.719Z,21.72
2022-08-18T12:02:46.461Z,21.76
2022-08-18T12:03:46.069Z,21.90
2022-08-18T12:04:46.426Z,21.81
2022-08-18T12:06:48.416Z,21.82
2022-08-18T12:07:57.111Z,21.79
2022-08-18T12:08:58.176Z,21.76
2022-08-18T12:10:49.391Z,21.76
2022-08-18T12:11:47.593Z,21.74
2022-08-18T12:12:48.018Z,21.83
2022-08-18T12:13:47.901Z,21.91
2022-08-18T12:14:48.034Z,21.81
2022-08-18T12:15:48.240Z,21.78
2022-08-18T12:16:50.219Z,21.91
2022-08-18T12:17:52.154Z,21.82
2022-08-18T12:18:48.664Z,21.90
2022-08-18T12:19:49.415Z,21.88
2022-08-18T12:20:49.065Z,21.90
2022-08-18T12:21:49.914Z,22.01
2022-08-18T12:22:49.658Z,21.92
2022-08-18T12:23:52.411Z,22.07
2022-08-18T12:24:49.778Z,22.07
2022-08-18T12:25:51.582Z,22.04
2022-08-18T12:26:50.115Z,22.07
2022-08-18T12:27:50.931Z,22.14
2022-08-18T12:28:50.450Z,22.04
2022-08-18T12:29:50.772Z,22.04
2022-08-18T12:30:56.623Z,22.04
2022-08-18T12:31:52.964Z,21.94
2022-08-18T12:33:01.002Z,21.99
2022-08-18T12:34:01.204Z,21.99
2022-08-18T12:34:52.588Z,21.94
2022-08-18T12:35:51.700Z,21.92
2022-08-18T12:36:51.863Z,22.01
2022-08-18T12:37:59.692Z,22.09
2022-08-18T12:39:53.991Z,22.10
2022-08-18T12:40:53.427Z,22.27
2022-08-18T12:41:52.663Z,22.27
2022-08-18T12:42:53.032Z,22.09
2022-08-18T12:43:59.019Z,22.06
2022-08-18T12:44:54.942Z,22.09
2022-08-18T12:45:54.443Z,22.19
2022-08-18T12:46:53.691Z,22.27
2022-08-18T12:47:53.877Z,22.29
2022-08-18T12:48:54.975Z,22.37
2022-08-18T12:49:54.184Z,22.46
2022-08-18T12:50:58.652Z,22.43
2022-08-18T12:51:55.807Z,22.43
2022-08-18T12:52:54.881Z,22.50
2022-08-18T12:54:56.940Z,22.68
2022-08-18T12:55:55.290Z,22.60
2022-08-18T12:56:56.117Z,22.64
2022-08-18T12:57:56.655Z,22.60
2022-08-18T12:58:56.439Z,22.78
2022-08-18T12:59:56.044Z,22.80
2022-08-18T13:00:56.628Z,22.86
2022-08-18T13:01:58.510Z,23.07
2022-08-18T13:02:57.580Z,23.08
2022-08-18T13:04:57.899Z,23.17
2022-08-18T13:05:57.942Z,23.29